createdAt,value
2023-03-04T00:00:33.562Z,100496.13
2023-03-04T00:03:01.245Z,100498.94
2023-03-04T00:05:30.831Z,100496.41
2023-03-04T00:07:58.497Z,100494.22
2023-03-04T00:10:26.180Z,100493.44
2023-03-04T00:12:55.208Z,100492.97
2023-03-04T00:15:22.818Z,100501.00
2023-03-04T00:17:50.636Z,100499.00
2023-03-04T00:20:18.701Z,100487.44
2023-03-04T00:22:47.969Z,100499.97
2023-03-04T00:25:15.778Z,100501.31
2023-03-04T00:27:43.387Z,100509.13
2023-03-04T00:30:13.128Z,100498.94
2023-03-04T00:32:40.890Z,100499.28
2023-03-04T00:35:09.225Z,100503.84
2023-03-04T00:37:36.856Z,100508.09
2023-03-04T00:40:05.445Z,100515.94
2023-03-04T00:42:33.077Z,100509.88
2023-03-04T00:45:00.981Z,100506.69
2023-03-04T00:47:30.055Z,100508.28
2023-03-04T00:49:57.708Z,100511.63
2023-03-04T00:52:25.370Z,100510.72
2023-03-04T00:54:52.984Z,100506.34
2023-03-04T00:57:20.725Z,100516.19
2023-03-04T00:59:48.459Z,100510.03
2023-03-04T01:02:16.303Z,100508.09
2023-03-04T01:04:45.446Z,100508.81
2023-03-04T01:07:13.059Z,100508.19
2023-03-04T01:09:40.702Z,100513.97
2023-03-04T01:12:08.636Z,100511.97
2023-03-04T01:14:36.477Z,100508.03
2023-03-04T01:17:04.521Z,100505.94
2023-03-04T01:19:32.110Z,100492.34
2023-03-04T01:22:01.747Z,100490.34
2023-03-04T01:24:30.003Z,100487.56
2023-03-04T01:26:57.741Z,100487.78
2023-03-04T01:29:25.415Z,100480.84
2023-03-04T01:31:53.009Z,100484.13
2023-03-04T01:34:20.635Z,100485.78
2023-03-04T01:37:15.151Z,100477.91
2023-03-04T01:39:42.814Z,100480.91
2023-03-04T01:42:18.217Z,100476.06
2023-03-04T01:44:46.368Z,100477.97
2023-03-04T01:47:14.796Z,100473.94
2023-03-04T01:49:42.598Z,100468.50
2023-03-04T01:52:13.943Z,100466.66
2023-03-04T01:54:45.866Z,100471.53
2023-03-04T01:57:18.551Z,100465.81
2023-03-04T01:59:48.049Z,100464.81
2023-03-04T02:02:15.925Z,100465.31
2023-03-04T02:04:43.813Z,100467.00
2023-03-04T02:07:11.713Z,100467.31
2023-03-04T02:09:39.545Z,100460.69
2023-03-04T02:12:08.622Z,100453.97
2023-03-04T02:14:36.265Z,100452.44
2023-03-04T02:17:03.935Z,100454.25
2023-03-04T02:19:45.560Z,100445.97
2023-03-04T02:22:13.240Z,100451.97
2023-03-04T02:24:46.323Z,100444.22
2023-03-04T02:27:15.498Z,100438.69
2023-03-04T02:29:43.272Z,100442.44
2023-03-04T02:32:13.187Z,100438.88
2023-03-04T02:34:46.505Z,100437.94
2023-03-04T02:37:15.051Z,100435.38
2023-03-04T02:39:45.004Z,100441.63
2023-03-04T02:42:13.680Z,100427.97
2023-03-04T02:44:46.456Z,100429.28
2023-03-04T02:47:17.753Z,100433.09
2023-03-04T02:49:45.993Z,100433.09
2023-03-04T02:52:16.067Z,100438.09
2023-03-04T02:54:43.914Z,100435.94
2023-03-04T02:57:13.307Z,100434.06
2023-03-04T02:59:42.595Z,100434.06
2023-03-04T03:02:10.921Z,100433.22
2023-03-04T03:04:41.113Z,100432.31
2023-03-04T03:07:09.561Z,100430.22
2023-03-04T03:09:37.476Z,100431.88
2023-03-04T03:12:05.324Z,100420.28
2023-03-04T03:14:32.981Z,100424.91
2023-03-04T03:17:02.030Z,100422.28
2023-03-04T03:19:29.672Z,100418.25
2023-03-04T03:21:57.367Z,100417.09
2023-03-04T03:24:25.048Z,100416.34
2023-03-04T03:26:52.913Z,100424.41
2023-03-04T03:29:20.555Z,100424.50
2023-03-04T03:31:48.219Z,100425.25
2023-03-04T03:34:17.199Z,100426.25
2023-03-04T03:36:44.803Z,100430.16
2023-03-04T03:39:12.467Z,100433.75
2023-03-04T03:41:40.127Z,100439.88
2023-03-04T03:44:07.876Z,100438.19
2023-03-04T03:46:35.916Z,100437.38
2023-03-04T03:49:03.627Z,100445.41
2023-03-04T03:51:32.688Z,100452.56
2023-03-04T03:54:00.335Z,100437.41
2023-03-04T03:56:28.061Z,100442.13
2023-03-04T03:58:55.832Z,100439.59
2023-03-04T04:01:23.451Z,100441.03
2023-03-04T04:03:51.069Z,100429.91
2023-03-04T04:06:18.851Z,100435.50
2023-03-04T04:08:47.864Z,100435.13
2023-03-04T04:11:15.603Z,100434.06
2023-03-04T04:13:43.214Z,100436.34
2023-03-04T04:16:11.707Z,100434.06
2023-03-04T04:18:39.855Z,100435.88
2023-03-04T04:21:07.624Z,100436.50
2023-03-04T04:23:35.486Z,100444.28
2023-03-04T04:26:04.929Z,100441.69
2023-03-04T04:28:32.701Z,100444.03
2023-03-04T04:31:00.500Z,100439.03
2023-03-04T04:33:28.234Z,100445.56
2023-03-04T04:35:56.099Z,100440.28
2023-03-04T04:38:24.623Z,100441.66
2023-03-04T04:40:52.256Z,100452.66
2023-03-04T04:43:21.288Z,100456.34
2023-03-04T04:45:48.955Z,100447.59
2023-03-04T04:48:16.760Z,100440.72
2023-03-04T04:50:44.437Z,100446.75
2023-03-04T04:53:13.492Z,100449.38
2023-03-04T04:55:41.153Z,100442.97
2023-03-04T04:58:08.872Z,100443.13
2023-03-04T05:00:37.854Z,100449.63
2023-03-04T05:03:05.618Z,100454.97
2023-03-04T05:05:33.264Z,100444.59
2023-03-04T05:08:00.991Z,100450.41
2023-03-04T05:10:28.696Z,100452.50
2023-03-04T05:12:56.296Z,100453.13
2023-03-04T05:15:23.964Z,100449.00
2023-03-04T05:17:53.002Z,100454.97
2023-03-04T05:20:20.906Z,100452.72
2023-03-04T05:22:48.649Z,100453.47
2023-03-04T05:25:16.374Z,100449.38
2023-03-04T05:27:44.042Z,100449.50
2023-03-04T05:30:13.539Z,100452.44
2023-03-04T05:32:41.158Z,100453.97
2023-03-04T05:35:11.073Z,100451.00
2023-03-04T05:37:38.820Z,100449.94
2023-03-04T05:40:07.659Z,100449.50
2023-03-04T05:42:35.431Z,100445.25
2023-03-04T05:45:03.255Z,100447.16
2023-03-04T05:47:30.925Z,100447.06
2023-03-04T05:49:58.930Z,100447.91
2023-03-04T05:52:27.855Z,100452.47
2023-03-04T05:54:55.468Z,100454.00
2023-03-04T05:57:23.229Z,100441.25
2023-03-04T05:59:50.819Z,100450.72
2023-03-04T06:02:18.431Z,100443.56
2023-03-04T06:04:46.124Z,100453.56
2023-03-04T06:07:14.028Z,100454.53
2023-03-04T06:09:45.132Z,100458.28
2023-03-04T06:12:13.020Z,100461.56
2023-03-04T06:14:40.691Z,100459.13
2023-03-04T06:17:08.682Z,100463.09
2023-03-04T06:19:38.005Z,100469.31
2023-03-04T06:22:06.069Z,100465.41
2023-03-04T06:24:33.809Z,100470.06
2023-03-04T06:27:03.208Z,100471.75
2023-03-04T06:29:31.029Z,100474.28
2023-03-04T06:31:58.811Z,100475.34
2023-03-04T06:34:26.544Z,100482.31
2023-03-04T06:36:54.331Z,100475.34
2023-03-04T06:39:21.919Z,100479.41
2023-03-04T06:41:50.132Z,100476.72
2023-03-04T06:44:19.948Z,100483.50
2023-03-04T06:46:47.748Z,100484.44
2023-03-04T06:49:15.570Z,100483.06
2023-03-04T06:51:43.287Z,100483.06
2023-03-04T06:54:11.083Z,100497.81
2023-03-04T06:56:38.936Z,100490.56
2023-03-04T06:59:06.545Z,100495.44
2023-03-04T07:01:36.668Z,100492.28
2023-03-04T07:04:04.724Z,100497.50
2023-03-04T07:06:32.484Z,100500.56
2023-03-04T07:09:02.462Z,100500.06
2023-03-04T07:11:30.158Z,100498.38
2023-03-04T07:13:58.185Z,100499.59
2023-03-04T07:16:26.039Z,100502.81
2023-03-04T07:18:59.860Z,100508.06
2023-03-04T07:21:27.619Z,100507.09
2023-03-04T07:23:55.619Z,100506.06
2023-03-04T07:26:23.323Z,100514.72
2023-03-04T07:28:52.294Z,100513.94
2023-03-04T07:31:25.343Z,100510.69
2023-03-04T07:33:53.299Z,100514.78
2023-03-04T07:36:22.426Z,100515.66
2023-03-04T07:38:51.923Z,100521.88
2023-03-04T07:41:19.941Z,100522.72
2023-03-04T07:43:48.177Z,100519.53
2023-03-04T07:46:16.942Z,100520.94
2023-03-04T07:48:44.662Z,100528.78
2023-03-04T07:51:14.344Z,100535.50
2023-03-04T07:53:45.803Z,100532.06
2023-03-04T07:56:16.429Z,100531.59
2023-03-04T07:58:44.797Z,100530.94
2023-03-04T08:01:14.333Z,100528.75
2023-03-04T08:03:42.087Z,100529.41
2023-03-04T08:06:11.230Z,100536.03
2023-03-04T08:08:39.468Z,100537.47
2023-03-04T08:11:10.276Z,100531.91
2023-03-04T08:13:38.015Z,100535.22
2023-03-04T08:16:06.711Z,100526.00
2023-03-04T08:18:34.542Z,100527.78
2023-03-04T08:21:02.303Z,100530.59
2023-03-04T08:23:30.035Z,100532.19
2023-03-04T08:25:57.799Z,100528.34
2023-03-04T08:28:26.841Z,100533.50
2023-03-04T08:30:56.596Z,100521.13
2023-03-04T08:33:24.266Z,100523.44
2023-03-04T08:35:51.962Z,100525.78
2023-03-04T08:38:19.852Z,100525.22
2023-03-04T08:40:52.764Z,100514.91
2023-03-04T08:43:20.521Z,100527.44
2023-03-04T08:45:50.508Z,100533.31
2023-03-04T08:48:18.728Z,100529.13
2023-03-04T08:50:47.196Z,100524.81
2023-03-04T08:53:15.566Z,100523.53
2023-03-04T08:55:44.169Z,100524.63
2023-03-04T08:58:12.432Z,100526.84
2023-03-04T09:00:42.915Z,100525.91
2023-03-04T09:03:13.846Z,100521.75
2023-03-04T09:05:42.118Z,100518.03
2023-03-04T09:08:09.778Z,100529.25
2023-03-04T09:10:37.375Z,100531.69
2023-03-04T09:13:06.324Z,100523.66
2023-03-04T09:15:36.059Z,100533.44
2023-03-04T09:18:04.948Z,100524.00
2023-03-04T09:20:34.064Z,100528.25
2023-03-04T09:23:02.233Z,100526.63
2023-03-04T09:25:29.966Z,100514.78
2023-03-04T09:27:57.983Z,100517.31
2023-03-04T09:30:27.504Z,100517.00
2023-03-04T09:32:55.980Z,100513.03
2023-03-04T09:35:23.786Z,100513.53
2023-03-04T09:37:53.664Z,100521.63
2023-03-04T09:40:26.091Z,100520.25
2023-03-04T09:42:58.043Z,100527.47
2023-03-04T09:45:35.392Z,100524.84
2023-03-04T09:48:04.047Z,100526.63
2023-03-04T09:50:42.077Z,100528.28
2023-03-04T09:53:22.025Z,100527.56
2023-03-04T09:55:52.447Z,100531.91
2023-03-04T09:58:34.660Z,100529.63
2023-03-04T10:01:05.512Z,100533.19
2023-03-04T10:03:43.101Z,100534.63
2023-03-04T10:06:13.037Z,100535.63
2023-03-04T10:08:48.781Z,100534.94
2023-03-04T10:11:19.182Z,100539.97
2023-03-04T10:13:58.777Z,100536.00
2023-03-04T10:16:32.750Z,100538.88
2023-03-04T10:19:08.270Z,100533.09
2023-03-04T10:21:41.570Z,100536.66
2023-03-04T10:24:14.764Z,100530.34
2023-03-04T10:26:45.316Z,100527.94
2023-03-04T10:29:17.157Z,100534.84
2023-03-04T10:31:46.622Z,100532.88
2023-03-04T10:34:15.620Z,100534.91
2023-03-04T10:36:56.745Z,100532.22
2023-03-04T10:39:29.596Z,100525.72
2023-03-04T10:42:01.349Z,100532.88
2023-03-04T10:44:30.298Z,100522.06
2023-03-04T10:46:59.508Z,100528.34
2023-03-04T10:49:28.649Z,100523.41
2023-03-04T10:52:03.482Z,100523.69
2023-03-04T10:54:42.258Z,100520.88
2023-03-04T10:57:16.504Z,100519.97
2023-03-04T10:59:50.626Z,100512.19
2023-03-04T11:02:24.362Z,100509.41
2023-03-04T11:04:55.003Z,100512.25
2023-03-04T11:07:23.595Z,100512.47
2023-03-04T11:09:52.786Z,100504.25
2023-03-04T11:12:22.707Z,100510.56
2023-03-04T11:14:52.662Z,100497.84
2023-03-04T11:17:26.151Z,100496.72
2023-03-04T11:19:59.315Z,100490.72
2023-03-04T11:22:30.165Z,100497.53
2023-03-04T11:25:03.413Z,100491.25
2023-03-04T11:27:39.821Z,100479.88
2023-03-04T11:30:30.139Z,100487.19
2023-03-04T11:33:05.741Z,100482.09
2023-03-04T11:35:39.393Z,100480.06
2023-03-04T11:38:14.299Z,100479.63
2023-03-04T11:40:47.064Z,100472.84
2023-03-04T11:43:19.669Z,100469.00
2023-03-04T11:46:11.447Z,100468.75
2023-03-04T11:48:49.773Z,100462.97
2023-03-04T11:51:24.831Z,100464.59
2023-03-04T11:54:06.690Z,100455.81
2023-03-04T11:56:43.300Z,100455.22
2023-03-04T11:59:35.839Z,100457.47
2023-03-04T12:02:14.237Z,100454.84
2023-03-04T12:04:59.553Z,100454.84
2023-03-04T12:07:47.274Z,100451.75
2023-03-04T12:10:25.792Z,100444.84
2023-03-04T12:13:30.936Z,100449.25
2023-03-04T12:16:06.816Z,100439.47
2023-03-04T12:18:46.645Z,100438.63
2023-03-04T12:21:21.730Z,100430.28
2023-03-04T12:24:08.504Z,100439.38
2023-03-04T12:26:41.417Z,100424.94
2023-03-04T12:29:18.426Z,100420.63
2023-03-04T12:31:47.775Z,100430.91
2023-03-04T12:34:39.212Z,100420.28
2023-03-04T12:37:28.210Z,100425.50
2023-03-04T12:40:24.601Z,100418.94
2023-03-04T12:43:06.052Z,100410.72
2023-03-04T12:45:44.172Z,100411.78
2023-03-04T12:48:24.194Z,100416.56
2023-03-04T12:50:58.924Z,100411.88
2023-03-04T12:53:34.842Z,100410.69
2023-03-04T12:56:06.049Z,100419.69
2023-03-04T12:58:37.794Z,100414.16
2023-03-04T13:01:15.911Z,100411.81
2023-03-04T13:03:56.177Z,100408.69
2023-03-04T13:06:37.244Z,100410.97
2023-03-04T13:09:11.666Z,100409.41
2023-03-04T13:11:55.853Z,100397.72
2023-03-04T13:14:32.611Z,100402.63
2023-03-04T13:17:03.476Z,100402.94
2023-03-04T13:19:50.824Z,100397.97
2023-03-04T13:22:37.241Z,100404.75
2023-03-04T13:25:31.202Z,100396.63
2023-03-04T13:28:24.756Z,100394.84
2023-03-04T13:31:18.202Z,100390.06
2023-03-04T13:33:52.530Z,100394.13
2023-03-04T13:36:48.440Z,100388.88
2023-03-04T13:39:31.581Z,100385.91
2023-03-04T13:41:59.823Z,100383.38
2023-03-04T13:44:58.466Z,100380.06
2023-03-04T13:47:41.110Z,100371.59
2023-03-04T13:50:36.519Z,100375.66
2023-03-04T13:53:24.072Z,100375.19
2023-03-04T13:56:11.479Z,100375.50
2023-03-04T13:58:40.163Z,100369.16
2023-03-04T14:01:24.493Z,100368.13
2023-03-04T14:03:52.224Z,100366.22
2023-03-04T14:06:23.545Z,100371.94
2023-03-04T14:08:53.180Z,100364.91
2023-03-04T14:11:27.763Z,100366.47
2023-03-04T14:13:58.023Z,100368.34
2023-03-04T14:16:29.279Z,100355.91
2023-03-04T14:19:03.138Z,100357.75
2023-03-04T14:21:32.913Z,100357.03
2023-03-04T14:24:03.667Z,100361.78
2023-03-04T14:26:31.725Z,100352.34
2023-03-04T14:29:02.102Z,100353.94
2023-03-04T14:31:32.663Z,100341.63
2023-03-04T14:34:02.836Z,100336.03
2023-03-04T14:36:34.253Z,100329.25
2023-03-04T14:39:04.336Z,100323.63
2023-03-04T14:41:35.188Z,100327.53
2023-03-04T14:44:12.664Z,100326.28
2023-03-04T14:46:46.143Z,100321.66
2023-03-04T14:49:19.268Z,100313.56
2023-03-04T14:51:50.381Z,100307.31
2023-03-04T14:54:36.987Z,100313.97
2023-03-04T14:57:24.717Z,100318.34
2023-03-04T14:59:53.309Z,100309.41
2023-03-04T15:02:31.376Z,100314.78
2023-03-04T15:05:01.254Z,100313.03
2023-03-04T15:07:34.968Z,100311.41
2023-03-04T15:10:04.773Z,100308.72
2023-03-04T15:12:35.324Z,100298.00
2023-03-04T15:15:04.700Z,100293.41
2023-03-04T15:17:38.521Z,100303.47
2023-03-04T15:20:24.369Z,100297.56
2023-03-04T15:23:01.709Z,100295.19
2023-03-04T15:25:30.550Z,100295.91
2023-03-04T15:28:01.102Z,100285.88
2023-03-04T15:30:32.741Z,100293.41
2023-03-04T15:33:01.840Z,100296.66
2023-03-04T15:35:31.822Z,100286.34
2023-03-04T15:38:01.606Z,100293.47
2023-03-04T15:40:31.864Z,100285.44
2023-03-04T15:43:01.824Z,100298.78
2023-03-04T15:45:32.476Z,100293.31
2023-03-04T15:48:00.156Z,100289.28
2023-03-04T15:50:29.967Z,100284.81
2023-03-04T15:53:02.062Z,100285.75
2023-03-04T15:55:34.111Z,100275.88
2023-03-04T15:58:04.308Z,100284.13
2023-03-04T16:00:32.132Z,100279.38
2023-03-04T16:02:59.862Z,100284.97
2023-03-04T16:05:27.623Z,100284.63
2023-03-04T16:07:55.389Z,100282.34
2023-03-04T16:10:26.965Z,100289.06
2023-03-04T16:12:56.046Z,100292.13
2023-03-04T16:15:26.283Z,100292.41
2023-03-04T16:17:54.472Z,100290.22
2023-03-04T16:20:23.726Z,100294.72
2023-03-04T16:22:54.127Z,100287.44
2023-03-04T16:25:23.080Z,100294.16
2023-03-04T16:27:52.996Z,100283.22
2023-03-04T16:30:24.414Z,100282.09
2023-03-04T16:32:52.356Z,100290.72
2023-03-04T16:35:20.845Z,100284.19
2023-03-04T16:37:48.547Z,100282.13
2023-03-04T16:40:19.312Z,100281.69
2023-03-04T16:42:47.007Z,100288.97
2023-03-04T16:45:18.949Z,100290.88
2023-03-04T16:47:48.588Z,100290.38
2023-03-04T16:50:18.078Z,100288.25
2023-03-04T16:52:46.612Z,100286.34
2023-03-04T16:55:18.723Z,100281.13
2023-03-04T16:57:46.477Z,100285.78
2023-03-04T17:00:17.046Z,100289.13
2023-03-04T17:02:45.167Z,100290.22
2023-03-04T17:05:17.803Z,100288.38
2023-03-04T17:07:45.641Z,100291.00
2023-03-04T17:10:14.458Z,100288.03
2023-03-04T17:12:42.553Z,100290.78
2023-03-04T17:15:11.507Z,100291.50
2023-03-04T17:17:39.612Z,100289.13
2023-03-04T17:20:10.076Z,100290.81
2023-03-04T17:22:39.086Z,100288.53
2023-03-04T17:25:07.809Z,100291.53
2023-03-04T17:27:35.439Z,100293.44
2023-03-04T17:30:03.412Z,100292.72
2023-03-04T17:32:32.562Z,100290.44
2023-03-04T17:35:00.646Z,100286.66
2023-03-04T17:37:28.404Z,100295.38
2023-03-04T17:39:57.341Z,100289.19
2023-03-04T17:42:24.906Z,100293.97
2023-03-04T17:44:52.500Z,100286.31
2023-03-04T17:47:20.120Z,100294.44
2023-03-04T17:49:47.805Z,100284.66
2023-03-04T17:52:15.522Z,100285.84
2023-03-04T17:54:45.639Z,100287.28
2023-03-04T17:57:16.506Z,100287.06
2023-03-04T17:59:44.118Z,100280.38
2023-03-04T18:02:15.664Z,100281.81
2023-03-04T18:04:43.868Z,100272.72
2023-03-04T18:07:11.550Z,100269.50
2023-03-04T18:09:39.814Z,100268.44
2023-03-04T18:12:08.181Z,100262.13
2023-03-04T18:14:37.119Z,100258.28
2023-03-04T18:17:04.868Z,100261.88
2023-03-04T18:19:32.788Z,100261.03
2023-03-04T18:22:00.390Z,100254.28
2023-03-04T18:24:28.021Z,100255.47
2023-03-04T18:26:56.808Z,100254.03
2023-03-04T18:29:24.498Z,100249.41
2023-03-04T18:31:53.534Z,100249.41
2023-03-04T18:34:21.346Z,100248.31
2023-03-04T18:36:50.380Z,100258.69
2023-03-04T18:39:18.053Z,100253.44
2023-03-04T18:41:45.777Z,100252.47
2023-03-04T18:44:13.452Z,100247.97
2023-03-04T18:46:44.189Z,100243.56
2023-03-04T18:49:15.467Z,100250.09
2023-03-04T18:51:43.101Z,100247.94
2023-03-04T18:54:10.899Z,100252.72
2023-03-04T18:56:43.726Z,100250.09
2023-03-04T18:59:15.250Z,100247.13
2023-03-04T19:01:42.890Z,100248.78
2023-03-04T19:04:11.180Z,100249.16
2023-03-04T19:06:40.350Z,100247.00
2023-03-04T19:09:08.007Z,100250.72
2023-03-04T19:11:35.668Z,100247.72
2023-03-04T19:14:03.389Z,100246.97
2023-03-04T19:16:31.240Z,100255.78
2023-03-04T19:18:58.901Z,100249.97
2023-03-04T19:21:26.571Z,100255.97
2023-03-04T19:23:55.538Z,100251.66
2023-03-04T19:26:23.418Z,100261.31
2023-03-04T19:28:51.099Z,100267.63
2023-03-04T19:31:18.816Z,100256.53
2023-03-04T19:33:46.674Z,100258.31
2023-03-04T19:36:14.425Z,100262.72
2023-03-04T19:38:43.558Z,100259.06
2023-03-04T19:41:14.540Z,100254.16
2023-03-04T19:43:42.907Z,100240.44
2023-03-04T19:46:11.614Z,100247.84
2023-03-04T19:48:40.254Z,100232.44
2023-03-04T19:51:15.475Z,100239.09
2023-03-04T19:53:43.213Z,100234.13
2023-03-04T19:56:12.541Z,100230.06
2023-03-04T19:58:40.461Z,100231.72
2023-03-04T20:01:08.174Z,100231.03
2023-03-04T20:03:35.838Z,100223.75
2023-03-04T20:06:05.064Z,100226.47
2023-03-04T20:08:32.816Z,100231.50
2023-03-04T20:11:00.439Z,100227.66
2023-03-04T20:13:29.661Z,100231.38
2023-03-04T20:15:57.319Z,100223.03
2023-03-04T20:18:25.017Z,100223.63
2023-03-04T20:20:53.146Z,100229.34
2023-03-04T20:23:21.694Z,100233.88
2023-03-04T20:25:49.334Z,100229.00
2023-03-04T20:28:16.984Z,100231.25
2023-03-04T20:30:47.730Z,100235.44
2023-03-04T20:33:15.390Z,100228.63
2023-03-04T20:35:43.185Z,100230.06
2023-03-04T20:38:11.121Z,100225.66
2023-03-04T20:40:40.480Z,100221.50
2023-03-04T20:43:08.124Z,100231.03
2023-03-04T20:45:37.349Z,100233.66
2023-03-04T20:48:06.649Z,100226.13
2023-03-04T20:50:34.280Z,100223.41
2023-03-04T20:53:02.241Z,100226.59
2023-03-04T20:55:30.353Z,100228.16
2023-03-04T20:57:58.026Z,100218.97
2023-03-04T21:00:26.209Z,100228.41
2023-03-04T21:02:54.967Z,100228.25
2023-03-04T21:05:23.983Z,100217.66
2023-03-04T21:07:51.638Z,100225.41
2023-03-04T21:10:20.655Z,100223.03
2023-03-04T21:12:48.665Z,100222.53
2023-03-04T21:15:16.412Z,100220.75
2023-03-04T21:17:43.981Z,100207.81
2023-03-04T21:20:15.815Z,100216.09
2023-03-04T21:22:44.895Z,100219.56
2023-03-04T21:25:12.516Z,100211.69
2023-03-04T21:27:42.641Z,100217.16
2023-03-04T21:30:12.433Z,100210.50
2023-03-04T21:32:40.560Z,100208.38
2023-03-04T21:35:12.883Z,100202.66
2023-03-04T21:37:41.657Z,100206.34
2023-03-04T21:40:12.238Z,100203.13
2023-03-04T21:42:40.248Z,100209.56
2023-03-04T21:45:08.702Z,100217.78
2023-03-04T21:47:36.369Z,100209.06
2023-03-04T21:50:04.685Z,100211.09
2023-03-04T21:52:32.296Z,100207.16
2023-03-04T21:55:00.645Z,100209.91
2023-03-04T21:57:29.706Z,100219.81
2023-03-04T21:59:57.612Z,100213.13
2023-03-04T22:02:25.417Z,100203.94
2023-03-04T22:04:54.744Z,100204.47
2023-03-04T22:07:22.595Z,100197.16
2023-03-04T22:09:50.444Z,100198.69
2023-03-04T22:12:19.581Z,100191.84
2023-03-04T22:14:48.778Z,100197.81
2023-03-04T22:17:16.448Z,100198.22
2023-03-04T22:19:44.198Z,100200.56
2023-03-04T22:22:11.795Z,100198.22
2023-03-04T22:24:39.450Z,100194.91
2023-03-04T22:27:07.330Z,100194.31
2023-03-04T22:29:34.996Z,100186.22
2023-03-04T22:32:04.203Z,100188.09
2023-03-04T22:34:31.845Z,100188.13
2023-03-04T22:36:59.717Z,100183.47
2023-03-04T22:39:27.333Z,100177.25
2023-03-04T22:41:54.952Z,100185.72
2023-03-04T22:44:22.542Z,100185.94
2023-03-04T22:46:50.204Z,100178.81
2023-03-04T22:49:19.152Z,100180.72
2023-03-04T22:51:46.810Z,100183.97
2023-03-04T22:54:15.629Z,100173.09
2023-03-04T22:56:44.005Z,100169.25
2023-03-04T22:59:11.746Z,100169.19
2023-03-04T23:01:39.592Z,100172.63
2023-03-04T23:04:07.245Z,100171.91
2023-03-04T23:06:37.513Z,100174.88
2023-03-04T23:09:05.977Z,100174.88
2023-03-04T23:11:36.515Z,100175.50
2023-03-04T23:14:07.261Z,100179.19
2023-03-04T23:16:37.435Z,100176.19
2023-03-04T23:19:05.418Z,100185.03
2023-03-04T23:21:33.839Z,100183.72
2023-03-04T23:24:04.130Z,100181.94
2023-03-04T23:26:33.951Z,100177.44
2023-03-04T23:29:02.996Z,100178.22
2023-03-04T23:31:31.341Z,100176.31
2023-03-04T23:33:59.829Z,100183.34
2023-03-04T23:36:29.021Z,100175.00
2023-03-04T23:38:57.378Z,100171.69
2023-03-04T23:41:28.913Z,100173.81
2023-03-04T23:43:58.572Z,100173.59
2023-03-04T23:46:27.851Z,100173.81
2023-03-04T23:48:56.143Z,100173.59
2023-03-04T23:51:26.221Z,100170.97
2023-03-04T23:53:53.852Z,100171.31
2023-03-04T23:56:25.242Z,100162.03
2023-03-04T23:58:54.636Z,100161.66
